createdAt,value
2018-08-06T00:00:45.974Z,13.1
2018-08-06T00:01:45.110Z,13.01
2018-08-06T00:02:45.351Z,13.06
2018-08-06T00:03:45.354Z,13.11
2018-08-06T00:04:45.346Z,13.09
2018-08-06T00:05:45.333Z,13.07
2018-08-06T00:06:45.072Z,13.01
2018-08-06T00:07:45.321Z,12.96
2018-08-06T00:08:45.056Z,12.95
2018-08-06T00:09:45.338Z,12.96
2018-08-06T00:10:45.305Z,12.98
2018-08-06T00:11:45.300Z,12.95
2018-08-06T00:12:45.287Z,12.92
2018-08-06T00:13:45.025Z,12.92
2018-08-06T00:14:45.276Z,12.91
2018-08-06T00:15:45.275Z,12.92
2018-08-06T00:16:45.266Z,12.89
2018-08-06T00:17:45.260Z,12.89
2018-08-06T00:18:45.253Z,12.86
2018-08-06T00:19:44.990Z,12.86
2018-08-06T00:20:45.243Z,12.78
2018-08-06T00:21:45.236Z,12.89
2018-08-06T00:22:44.967Z,12.92
2018-08-06T00:23:45.225Z,12.77
2018-08-06T00:24:44.960Z,12.76
2018-08-06T00:25:45.208Z,12.76
2018-08-06T00:26:45.208Z,12.76
2018-08-06T00:27:45.197Z,12.77
2018-08-06T00:28:45.183Z,12.73
2018-08-06T00:29:45.410Z,12.74
2018-08-06T00:30:44.920Z,12.73
2018-08-06T00:31:45.170Z,12.73
2018-08-06T00:32:44.905Z,12.7
2018-08-06T00:33:44.638Z,12.62
2018-08-06T00:34:45.164Z,12.63
2018-08-06T00:35:45.148Z,12.62
2018-08-06T00:36:44.620Z,12.61
2018-08-06T00:37:45.128Z,12.56
2018-08-06T00:38:45.116Z,12.55
2018-08-06T00:39:45.116Z,12.58
2018-08-06T00:40:45.109Z,12.66
2018-08-06T00:41:45.111Z,12.58
2018-08-06T00:42:45.091Z,12.55
2018-08-06T00:43:44.829Z,12.52
2018-08-06T00:44:45.081Z,12.58
2018-08-06T00:45:45.074Z,12.53
2018-08-06T00:46:45.079Z,12.47
2018-08-06T00:47:45.058Z,12.51
2018-08-06T00:48:45.060Z,12.52
2018-08-06T00:49:45.044Z,12.53
2018-08-06T00:50:45.039Z,12.44
2018-08-06T00:51:44.773Z,12.41
2018-08-06T00:52:44.513Z,12.41
2018-08-06T00:53:45.021Z,12.45
2018-08-06T00:54:45.012Z,12.43
2018-08-06T00:55:44.745Z,12.4
2018-08-06T00:56:44.999Z,12.41
2018-08-06T00:57:44.736Z,12.36
2018-08-06T00:58:44.724Z,12.26
2018-08-06T00:59:44.983Z,12.26
2018-08-06T01:00:44.981Z,12.29
2018-08-06T01:01:44.961Z,12.26
2018-08-06T01:02:44.699Z,12.25
2018-08-06T01:03:44.948Z,12.36
2018-08-06T01:04:44.946Z,12.36
2018-08-06T01:05:44.686Z,12.28
2018-08-06T01:06:44.672Z,12.36
2018-08-06T01:07:44.666Z,12.36
2018-08-06T01:08:44.656Z,12.31
2018-08-06T01:09:44.906Z,12.28
2018-08-06T01:10:44.903Z,12.29
2018-08-06T01:11:44.894Z,12.29
2018-08-06T01:12:44.890Z,12.33
2018-08-06T01:13:44.621Z,12.28
2018-08-06T01:14:44.362Z,12.23
2018-08-06T01:15:44.613Z,12.19
2018-08-06T01:16:44.859Z,12.25
2018-08-06T01:17:44.598Z,12.2
2018-08-06T01:18:44.847Z,12.26
2018-08-06T01:19:44.842Z,12.18
2018-08-06T01:20:44.573Z,12.22
2018-08-06T01:21:44.567Z,12.18
2018-08-06T01:22:44.569Z,12.18
2018-08-06T01:23:44.812Z,12.22
2018-08-06T01:24:44.810Z,12.19
2018-08-06T01:25:44.542Z,12.19
2018-08-06T01:26:44.531Z,12.18
2018-08-06T01:27:44.781Z,12.08
2018-08-06T01:28:44.519Z,12.11
2018-08-06T01:29:44.769Z,12.13
2018-08-06T01:30:44.514Z,12.04
2018-08-06T01:31:44.500Z,12.08
2018-08-06T01:32:44.762Z,12.03
2018-08-06T01:33:44.483Z,12.07
2018-08-06T01:34:44.738Z,12.08
2018-08-06T01:35:44.724Z,12.07
2018-08-06T01:36:44.719Z,12.08
2018-08-06T01:37:44.719Z,12.18
2018-08-06T01:38:44.705Z,12.08
2018-08-06T01:39:44.698Z,12
2018-08-06T01:40:44.435Z,11.94
2018-08-06T01:41:44.683Z,12.04
2018-08-06T01:42:44.422Z,11.95
2018-08-06T01:43:44.663Z,12.03
2018-08-06T01:44:44.404Z,12.04
2018-08-06T01:45:44.796Z,12.04
2018-08-06T01:46:44.646Z,12.03
2018-08-06T01:47:44.385Z,12.07
2018-08-06T01:48:44.376Z,12.03
2018-08-06T01:49:44.627Z,12.01
2018-08-06T01:50:44.624Z,12
2018-08-06T01:51:44.609Z,12.04
2018-08-06T01:52:44.611Z,12.04
2018-08-06T01:53:44.349Z,12.03
2018-08-06T01:54:44.590Z,12
2018-08-06T01:55:44.335Z,12.03
2018-08-06T01:56:44.316Z,12.03
2018-08-06T01:57:44.311Z,11.91
2018-08-06T01:58:44.563Z,11.98
2018-08-06T01:59:44.292Z,11.91
2018-08-06T02:00:44.296Z,11.97
2018-08-06T02:01:44.537Z,11.88
2018-08-06T02:02:44.533Z,11.94
2018-08-06T02:03:44.527Z,11.98
2018-08-06T02:04:44.518Z,11.97
2018-08-06T02:05:44.516Z,11.94
2018-08-06T02:06:44.243Z,11.94
2018-08-06T02:07:44.239Z,11.91
2018-08-06T02:08:44.231Z,11.84
2018-08-06T02:09:44.220Z,11.82
2018-08-06T02:10:44.470Z,11.85
2018-08-06T02:11:44.467Z,11.81
2018-08-06T02:12:44.201Z,11.78
2018-08-06T02:13:44.444Z,11.81
2018-08-06T02:14:44.438Z,11.76
2018-08-06T02:15:44.439Z,11.78
2018-08-06T02:16:44.176Z,11.75
2018-08-06T02:17:44.421Z,11.75
2018-08-06T02:18:43.905Z,11.75
2018-08-06T02:19:44.403Z,11.78
2018-08-06T02:20:44.402Z,11.66
2018-08-06T02:21:44.131Z,11.66
2018-08-06T02:22:44.386Z,11.68
2018-08-06T02:23:44.125Z,11.66
2018-08-06T02:24:44.113Z,11.67
2018-08-06T02:25:44.357Z,11.71
2018-08-06T02:26:44.354Z,11.73
2018-08-06T02:27:44.353Z,11.64
2018-08-06T02:28:44.344Z,11.61
2018-08-06T02:29:44.334Z,11.64
2018-08-06T02:30:44.328Z,11.6
2018-08-06T02:31:44.060Z,11.59
2018-08-06T02:32:44.329Z,11.57
2018-08-06T02:33:44.309Z,11.56
2018-08-06T02:34:44.294Z,11.56
2018-08-06T02:35:44.292Z,11.63
2018-08-06T02:36:44.287Z,11.56
2018-08-06T02:37:44.033Z,11.48
2018-08-06T02:38:44.260Z,11.56
2018-08-06T02:39:44.004Z,11.52
2018-08-06T02:40:43.994Z,11.59
2018-08-06T02:41:44.241Z,11.59
2018-08-06T02:42:44.238Z,11.48
2018-08-06T02:43:43.970Z,11.46
2018-08-06T02:44:43.964Z,11.52
2018-08-06T02:45:44.210Z,11.52
2018-08-06T02:46:44.197Z,11.49
2018-08-06T02:47:43.935Z,11.48
2018-08-06T02:48:44.187Z,11.49
2018-08-06T02:49:44.180Z,11.43
2018-08-06T02:50:44.188Z,11.46
2018-08-06T02:51:44.163Z,11.63
2018-08-06T02:52:43.898Z,11.51
2018-08-06T02:53:44.170Z,11.56
2018-08-06T02:54:44.147Z,11.53
2018-08-06T02:55:43.873Z,11.6
2018-08-06T02:56:44.126Z,11.57
2018-08-06T02:57:44.118Z,11.63
2018-08-06T02:58:44.113Z,11.64
2018-08-06T02:59:43.843Z,11.59
2018-08-06T03:00:44.145Z,11.52
2018-08-06T03:01:43.829Z,11.61
2018-08-06T03:02:44.085Z,11.59
2018-08-06T03:03:44.082Z,11.51
2018-08-06T03:04:44.066Z,11.51
2018-08-06T03:05:44.064Z,11.56
2018-08-06T03:06:44.051Z,11.49
2018-08-06T03:07:43.788Z,11.52
2018-08-06T03:08:43.776Z,11.35
2018-08-06T03:09:44.025Z,11.42
2018-08-06T03:10:43.764Z,11.45
2018-08-06T03:11:44.014Z,11.38
2018-08-06T03:12:44.003Z,11.45
2018-08-06T03:13:43.738Z,11.41
2018-08-06T03:14:43.982Z,11.42
2018-08-06T03:15:43.980Z,11.42
2018-08-06T03:16:43.979Z,11.48
2018-08-06T03:17:43.968Z,11.38
2018-08-06T03:18:43.698Z,11.35
2018-08-06T03:19:43.692Z,11.38
2018-08-06T03:20:43.942Z,11.31
2018-08-06T03:21:43.681Z,11.39
2018-08-06T03:22:43.669Z,11.38
2018-08-06T03:23:43.915Z,11.39
2018-08-06T03:24:43.647Z,11.34
2018-08-06T03:25:43.640Z,11.31
2018-08-06T03:26:43.893Z,11.39
2018-08-06T03:27:43.883Z,11.3
2018-08-06T03:28:43.883Z,11.33
2018-08-06T03:29:44.090Z,11.3
2018-08-06T03:30:43.863Z,11.33
2018-08-06T03:31:43.862Z,11.38
2018-08-06T03:32:43.595Z,11.41
2018-08-06T03:33:43.584Z,11.39
2018-08-06T03:34:43.573Z,11.3
2018-08-06T03:35:43.566Z,11.3
2018-08-06T03:36:43.817Z,11.31
2018-08-06T03:37:43.807Z,11.33
2018-08-06T03:38:43.801Z,11.3
2018-08-06T03:39:43.790Z,11.31
2018-08-06T03:40:43.525Z,11.2
2018-08-06T03:41:43.514Z,11.27
2018-08-06T03:42:43.764Z,11.1
2018-08-06T03:43:43.765Z,11.13
2018-08-06T03:44:43.495Z,11.12
2018-08-06T03:45:43.739Z,11.12
2018-08-06T03:46:43.730Z,11.12
2018-08-06T03:47:43.725Z,11.15
2018-08-06T03:48:43.714Z,11.13
2018-08-06T03:49:43.455Z,11.18
2018-08-06T03:50:43.703Z,11.12
2018-08-06T03:51:43.439Z,11.13
2018-08-06T03:52:43.820Z,11.12
2018-08-06T03:53:43.679Z,11.13
2018-08-06T03:54:43.668Z,11.15
2018-08-06T03:55:43.660Z,11.13
2018-08-06T03:56:43.394Z,11.13
2018-08-06T03:57:43.392Z,11.13
2018-08-06T03:58:43.643Z,11.18
2018-08-06T03:59:43.113Z,11.12
2018-08-06T04:00:43.624Z,11.18
2018-08-06T04:01:43.622Z,11.18
2018-08-06T04:02:43.601Z,11.18
2018-08-06T04:03:43.084Z,11.1
2018-08-06T04:04:43.330Z,11.16
2018-08-06T04:05:43.582Z,11.12
2018-08-06T04:06:43.569Z,11.09
2018-08-06T04:07:43.570Z,11.09
2018-08-06T04:08:43.558Z,11.15
2018-08-06T04:09:43.553Z,11.05
2018-08-06T04:10:43.286Z,11.13
2018-08-06T04:11:43.531Z,11.1
2018-08-06T04:12:43.270Z,11.09
2018-08-06T04:13:43.611Z,11.13
2018-08-06T04:14:43.256Z,11.12
2018-08-06T04:15:43.503Z,11.13
2018-08-06T04:16:43.239Z,11.13
2018-08-06T04:17:43.511Z,11.09
2018-08-06T04:18:43.473Z,11.1
2018-08-06T04:19:43.594Z,11.23
2018-08-06T04:20:43.467Z,11.13
2018-08-06T04:21:43.452Z,11.21
2018-08-06T04:22:43.454Z,11.1
2018-08-06T04:23:43.438Z,11.28
2018-08-06T04:24:43.437Z,11.26
2018-08-06T04:25:43.424Z,11.21
2018-08-06T04:26:43.416Z,11.34
2018-08-06T04:27:43.146Z,11.34
2018-08-06T04:28:43.393Z,11.3
2018-08-06T04:29:43.388Z,11.3
2018-08-06T04:30:43.383Z,11.35
2018-08-06T04:31:43.373Z,11.34
2018-08-06T04:32:43.555Z,11.28
2018-08-06T04:33:43.363Z,11.33
2018-08-06T04:34:43.091Z,11.35
2018-08-06T04:35:43.091Z,11.46
2018-08-06T04:36:43.071Z,11.41
2018-08-06T04:37:43.323Z,11.43
2018-08-06T04:38:43.147Z,11.45
2018-08-06T04:39:43.308Z,11.41
2018-08-06T04:40:43.305Z,11.51
2018-08-06T04:41:43.039Z,11.43
2018-08-06T04:42:43.287Z,11.43
2018-08-06T04:43:43.276Z,11.43
2018-08-06T04:44:43.269Z,11.49
2018-08-06T04:45:43.260Z,11.57
2018-08-06T04:46:43.253Z,11.6
2018-08-06T04:47:42.985Z,11.66
2018-08-06T04:48:43.246Z,11.63
2018-08-06T04:49:43.228Z,11.7
2018-08-06T04:50:42.966Z,11.71
2018-08-06T04:51:43.216Z,11.7
2018-08-06T04:52:43.205Z,11.81
2018-08-06T04:53:42.940Z,11.7
2018-08-06T04:54:43.192Z,11.82
2018-08-06T04:55:43.180Z,11.79
2018-08-06T04:56:43.174Z,11.84
2018-08-06T04:57:42.914Z,11.84
2018-08-06T04:58:42.905Z,11.91
2018-08-06T04:59:43.401Z,11.91
2018-08-06T05:00:43.144Z,12.01
2018-08-06T05:01:43.134Z,12.04
2018-08-06T05:02:43.133Z,12.03
2018-08-06T05:03:43.129Z,12.08
2018-08-06T05:04:42.853Z,12.08
2018-08-06T05:05:43.106Z,12.13
2018-08-06T05:06:42.836Z,12.19
2018-08-06T05:07:43.090Z,12.16
2018-08-06T05:08:43.081Z,12.22
2018-08-06T05:09:43.071Z,12.36
2018-08-06T05:10:43.064Z,12.31
2018-08-06T05:11:43.061Z,12.37
2018-08-06T05:12:42.792Z,12.28
2018-08-06T05:13:42.886Z,12.36
2018-08-06T05:14:43.041Z,12.28
2018-08-06T05:15:43.031Z,12.44
2018-08-06T05:16:42.773Z,12.43
2018-08-06T05:17:43.017Z,12.56
2018-08-06T05:18:42.749Z,12.51
2018-08-06T05:19:42.740Z,12.55
2018-08-06T05:20:42.734Z,12.56
2018-08-06T05:21:42.993Z,12.58
2018-08-06T05:22:42.971Z,12.61
2018-08-06T05:23:42.974Z,12.65
2018-08-06T05:24:43.096Z,12.73
2018-08-06T05:25:42.701Z,12.73
2018-08-06T05:26:42.949Z,12.78
2018-08-06T05:27:42.695Z,12.73
2018-08-06T05:28:42.931Z,12.88
2018-08-06T05:29:42.921Z,12.89
2018-08-06T05:30:42.719Z,12.88
2018-08-06T05:31:42.651Z,12.92
2018-08-06T05:32:42.907Z,12.96
2018-08-06T05:33:42.897Z,12.95
2018-08-06T05:34:42.634Z,13.06
2018-08-06T05:35:42.876Z,13.24
2018-08-06T05:36:42.875Z,13.21
2018-08-06T05:37:42.615Z,13.29
2018-08-06T05:38:42.870Z,13.4
2018-08-06T05:39:42.597Z,13.45
2018-08-06T05:40:42.852Z,13.4
2018-08-06T05:41:42.590Z,13.51
2018-08-06T05:42:42.833Z,13.44
2018-08-06T05:43:42.836Z,13.51
2018-08-06T05:44:42.815Z,13.54
2018-08-06T05:45:42.808Z,13.58
2018-08-06T05:46:42.813Z,13.54
2018-08-06T05:47:42.804Z,13.68
2018-08-06T05:48:42.278Z,13.7
2018-08-06T05:49:42.784Z,13.68
2018-08-06T05:50:42.779Z,13.66
2018-08-06T05:51:42.517Z,13.78
2018-08-06T05:52:42.767Z,13.81
2018-08-06T05:53:42.764Z,13.86
2018-08-06T05:54:42.492Z,13.93
2018-08-06T05:55:42.494Z,13.95
2018-08-06T05:56:42.763Z,14.01
2018-08-06T05:57:42.731Z,14.06
2018-08-06T05:58:42.209Z,14.09
2018-08-06T05:59:42.460Z,14.13
2018-08-06T06:00:42.460Z,14.05
2018-08-06T06:01:42.705Z,14.2
2018-08-06T06:02:42.453Z,14.26
2018-08-06T06:03:42.441Z,14.3
2018-08-06T06:04:42.437Z,14.26
2018-08-06T06:05:42.426Z,14.33
2018-08-06T06:06:42.416Z,14.31
2018-08-06T06:07:42.676Z,14.39
2018-08-06T06:08:42.413Z,14.34
2018-08-06T06:09:42.400Z,14.36
2018-08-06T06:10:42.646Z,14.36
2018-08-06T06:11:42.638Z,14.57
2018-08-06T06:12:42.380Z,14.52
2018-08-06T06:13:42.631Z,14.49
2018-08-06T06:14:42.624Z,14.6
2018-08-06T06:15:42.620Z,14.66
2018-08-06T06:16:42.355Z,14.61
2018-08-06T06:17:42.626Z,14.75
2018-08-06T06:18:42.090Z,14.71
2018-08-06T06:19:42.596Z,14.82
2018-08-06T06:20:42.602Z,14.8
2018-08-06T06:21:42.588Z,14.89
2018-08-06T06:22:42.581Z,15
2018-08-06T06:23:42.571Z,15.02
2018-08-06T06:24:42.309Z,15.16
2018-08-06T06:25:42.642Z,15.25
2018-08-06T06:26:42.561Z,15.31
2018-08-06T06:27:42.549Z,15.35
2018-08-06T06:28:42.787Z,15.38
2018-08-06T06:29:42.279Z,15.4
2018-08-06T06:30:42.028Z,15.47
2018-08-06T06:31:42.532Z,15.52
2018-08-06T06:32:42.265Z,15.47
2018-08-06T06:33:42.258Z,15.62
2018-08-06T06:34:43.013Z,15.71
2018-08-06T06:35:42.506Z,15.75
2018-08-06T06:36:42.498Z,15.75
2018-08-06T06:37:42.243Z,15.83
2018-08-06T06:38:41.978Z,15.89
2018-08-06T06:39:42.489Z,15.86
2018-08-06T06:40:42.483Z,16.04
2018-08-06T06:41:42.563Z,16.18
2018-08-06T06:42:42.220Z,16.26
2018-08-06T06:43:42.208Z,16.22
2018-08-06T06:44:42.209Z,16.39
2018-08-06T06:45:42.452Z,16.49
2018-08-06T06:46:42.452Z,16.54
2018-08-06T06:47:42.189Z,16.7
2018-08-06T06:48:42.198Z,16.85
2018-08-06T06:49:41.921Z,17
2018-08-06T06:50:42.439Z,16.92
2018-08-06T06:51:42.484Z,17.22
2018-08-06T06:52:42.169Z,17.66
2018-08-06T06:53:42.421Z,18.11
2018-08-06T06:54:42.424Z,18.5
2018-08-06T06:55:42.157Z,18.97
2018-08-06T06:56:41.895Z,19.57
2018-08-06T06:57:42.407Z,20.22
2018-08-06T06:58:42.404Z,21.34
2018-08-06T06:59:42.400Z,22.3
2018-08-06T07:00:42.132Z,23.29
2018-08-06T07:01:42.395Z,24.19
2018-08-06T07:02:42.133Z,24.92
2018-08-06T07:03:42.132Z,25.67
2018-08-06T07:04:42.388Z,26.41
2018-08-06T07:05:42.134Z,27.04
2018-08-06T07:06:41.869Z,27.59
2018-08-06T07:07:42.402Z,28.18
2018-08-06T07:08:42.401Z,28.75
2018-08-06T07:09:42.127Z,29.28
2018-08-06T07:10:42.387Z,29.67
2018-08-06T07:11:42.390Z,30.1
2018-08-06T07:12:42.130Z,30.31
2018-08-06T07:13:42.675Z,30.4
2018-08-06T07:14:41.874Z,30.66
2018-08-06T07:15:42.132Z,30.84
2018-08-06T07:16:42.418Z,31.13
2018-08-06T07:17:42.138Z,31.44
2018-08-06T07:18:42.148Z,31.52
2018-08-06T07:19:42.149Z,31.62
2018-08-06T07:20:42.409Z,31.93
2018-08-06T07:21:42.416Z,32.24
2018-08-06T07:22:42.415Z,32.46
2018-08-06T07:23:42.423Z,32.56
2018-08-06T07:24:42.440Z,32.79
2018-08-06T07:25:42.432Z,32.8
2018-08-06T07:26:42.193Z,33.05
2018-08-06T07:27:42.438Z,33.09
2018-08-06T07:28:42.441Z,33.03
2018-08-06T07:29:42.192Z,33.02
2018-08-06T07:30:42.449Z,33.05
2018-08-06T07:31:42.459Z,33.05
2018-08-06T07:32:42.467Z,33.18
2018-08-06T07:33:42.603Z,33.17
2018-08-06T07:34:42.483Z,33.31
2018-08-06T07:35:42.489Z,33.39
2018-08-06T07:36:42.234Z,33.37
2018-08-06T07:37:42.243Z,33.37
2018-08-06T07:38:42.244Z,33.4
2018-08-06T07:39:42.516Z,33.55
2018-08-06T07:40:42.524Z,33.73
2018-08-06T07:41:42.532Z,33.83
2018-08-06T07:42:42.539Z,34.02
2018-08-06T07:43:42.278Z,34.15
2018-08-06T07:44:42.544Z,34.45
2018-08-06T07:45:42.557Z,34.58
2018-08-06T07:46:42.560Z,34.87
2018-08-06T07:47:42.314Z,35.05
2018-08-06T07:48:42.577Z,34.86
2018-08-06T07:49:42.816Z,34.9
2018-08-06T07:50:42.337Z,34.83
2018-08-06T07:51:42.339Z,34.74
2018-08-06T07:52:42.631Z,34.67
2018-08-06T07:53:42.355Z,34.69
2018-08-06T07:54:42.101Z,34.69
2018-08-06T07:55:42.629Z,34.74
2018-08-06T07:56:42.637Z,34.52
2018-08-06T07:57:42.637Z,34.46
2018-08-06T07:58:42.389Z,34.14
2018-08-06T07:59:42.729Z,33.75
2018-08-06T08:00:42.661Z,33.21
2018-08-06T08:01:42.419Z,32.57
2018-08-06T08:02:42.674Z,31.97
2018-08-06T08:03:42.679Z,31.4
2018-08-06T08:04:42.425Z,30.84
2018-08-06T08:05:42.690Z,30.18
2018-08-06T08:06:42.699Z,29.73
2018-08-06T08:07:42.705Z,29.23
2018-08-06T08:08:42.450Z,28.85
2018-08-06T08:09:42.459Z,28.46
2018-08-06T08:10:42.717Z,28.11
2018-08-06T08:11:42.468Z,27.83
2018-08-06T08:12:42.475Z,27.53
2018-08-06T08:13:42.479Z,27.34
2018-08-06T08:14:42.481Z,26.94
2018-08-06T08:15:42.745Z,26.81
2018-08-06T08:16:42.497Z,26.64
2018-08-06T08:17:42.752Z,26.52
2018-08-06T08:18:42.756Z,26.39
2018-08-06T08:19:43.174Z,26.11
2018-08-06T08:20:42.761Z,26.07
2018-08-06T08:21:42.507Z,25.89
2018-08-06T08:22:42.516Z,25.84
2018-08-06T08:23:42.520Z,25.67
2018-08-06T08:24:42.775Z,25.57
2018-08-06T08:25:42.521Z,25.45
2018-08-06T08:26:42.785Z,25.32
2018-08-06T08:27:42.532Z,25.2
2018-08-06T08:28:42.538Z,25.07
2018-08-06T08:29:42.797Z,24.97
2018-08-06T08:30:42.800Z,24.97
2018-08-06T08:31:42.802Z,25.04
2018-08-06T08:32:42.555Z,24.92
2018-08-06T08:33:42.806Z,24.94
2018-08-06T08:34:42.561Z,24.86
2018-08-06T08:35:42.812Z,24.78
2018-08-06T08:36:42.823Z,24.87
2018-08-06T08:37:42.562Z,24.94
2018-08-06T08:38:42.820Z,24.97
2018-08-06T08:39:42.756Z,25.08
2018-08-06T08:40:42.831Z,25.2
2018-08-06T08:41:42.581Z,25.15
2018-08-06T08:42:42.573Z,25.19
2018-08-06T08:43:42.579Z,25.27
2018-08-06T08:44:42.847Z,25.3
2018-08-06T08:45:43.238Z,25.22
2018-08-06T08:46:42.845Z,25.22
2018-08-06T08:47:42.588Z,25.26
2018-08-06T08:48:42.848Z,25.15
2018-08-06T08:49:42.847Z,25.14
2018-08-06T08:50:42.852Z,25.15
2018-08-06T08:51:42.879Z,25.19
2018-08-06T08:52:42.868Z,25.02
2018-08-06T08:53:42.346Z,25
2018-08-06T08:54:42.868Z,24.94
2018-08-06T08:55:42.609Z,24.97
2018-08-06T08:56:42.869Z,24.97
2018-08-06T08:57:42.870Z,25.01
2018-08-06T08:58:42.857Z,25.17
2018-08-06T08:59:42.617Z,25.26
2018-08-06T09:00:42.882Z,25.24
2018-08-06T09:01:42.888Z,25.33
2018-08-06T09:02:42.880Z,25.32
2018-08-06T09:03:42.888Z,25.26
2018-08-06T09:04:42.885Z,25.34
2018-08-06T09:05:42.631Z,25.33
2018-08-06T09:06:42.633Z,25.26
2018-08-06T09:07:42.899Z,25.44
2018-08-06T09:08:42.893Z,25.39
2018-08-06T09:09:42.902Z,25.37
2018-08-06T09:10:42.644Z,25.48
2018-08-06T09:11:42.641Z,25.56
2018-08-06T09:12:42.647Z,25.56
2018-08-06T09:13:42.908Z,25.52
2018-08-06T09:14:42.905Z,25.47
2018-08-06T09:15:42.923Z,25.39
2018-08-06T09:16:42.917Z,25.26
2018-08-06T09:17:42.913Z,25.24
2018-08-06T09:18:42.656Z,25.33
2018-08-06T09:19:42.660Z,25.22
2018-08-06T09:20:42.924Z,25.23
2018-08-06T09:21:42.929Z,25.37
2018-08-06T09:22:42.922Z,25.29
2018-08-06T09:23:42.411Z,25.2
2018-08-06T09:24:42.936Z,25.38
2018-08-06T09:25:42.926Z,25.49
2018-08-06T09:26:42.985Z,25.45
2018-08-06T09:27:42.952Z,25.66
2018-08-06T09:28:42.934Z,25.82
2018-08-06T09:29:42.685Z,25.82
2018-08-06T09:30:42.935Z,25.82
2018-08-06T09:31:42.946Z,25.86
2018-08-06T09:32:42.944Z,25.91
2018-08-06T09:33:42.948Z,26.04
2018-08-06T09:34:42.952Z,26.19
2018-08-06T09:35:42.695Z,26.16
2018-08-06T09:36:42.953Z,26.07
2018-08-06T09:37:42.961Z,26.06
2018-08-06T09:38:42.959Z,26.2
2018-08-06T09:39:42.962Z,26.11
2018-08-06T09:40:42.764Z,26.22
2018-08-06T09:41:42.960Z,26.15
2018-08-06T09:42:42.732Z,26.04
2018-08-06T09:43:42.969Z,26.06
2018-08-06T09:44:42.721Z,25.93
2018-08-06T09:45:42.976Z,26
2018-08-06T09:46:42.461Z,26.04
2018-08-06T09:47:42.747Z,26.11
2018-08-06T09:48:42.868Z,26.23
2018-08-06T09:49:42.724Z,26.26
2018-08-06T09:50:42.988Z,26.31
2018-08-06T09:51:42.473Z,26.41
2018-08-06T09:52:42.990Z,26.32
2018-08-06T09:53:42.741Z,26.23
2018-08-06T09:54:42.732Z,26.16
2018-08-06T09:55:42.740Z,26.04
2018-08-06T09:56:42.738Z,25.91
2018-08-06T09:57:43.012Z,25.96
2018-08-06T09:58:42.998Z,25.88
2018-08-06T09:59:42.748Z,25.91
2018-08-06T10:00:42.755Z,25.91
2018-08-06T10:01:43.011Z,25.85
2018-08-06T10:02:43.014Z,25.75
2018-08-06T10:03:43.017Z,25.79
2018-08-06T10:04:42.762Z,25.74
2018-08-06T10:05:43.432Z,25.79
2018-08-06T10:06:43.766Z,25.81
2018-08-06T10:07:43.027Z,25.91
2018-08-06T10:08:42.769Z,25.99
2018-08-06T10:09:42.774Z,26.06
2018-08-06T10:10:43.042Z,26.15
2018-08-06T10:11:43.033Z,26.19
2018-08-06T10:12:43.039Z,26.41
2018-08-06T10:13:43.047Z,26.38
2018-08-06T10:14:42.781Z,26.38
2018-08-06T10:15:43.052Z,26.32
2018-08-06T10:16:43.042Z,26.31
2018-08-06T10:17:43.053Z,26.35
2018-08-06T10:18:43.233Z,26.35
2018-08-06T10:19:43.452Z,26.26
2018-08-06T10:20:42.800Z,26.35
2018-08-06T10:21:43.061Z,26.39
2018-08-06T10:22:43.067Z,26.49
2018-08-06T10:23:42.803Z,26.41
2018-08-06T10:24:42.848Z,26.39
2018-08-06T10:25:43.066Z,26.39
2018-08-06T10:26:43.068Z,26.31
2018-08-06T10:27:43.069Z,26.38
2018-08-06T10:28:43.075Z,26.45
2018-08-06T10:29:42.819Z,26.3
2018-08-06T10:30:43.548Z,26.32
2018-08-06T10:31:43.082Z,26.32
2018-08-06T10:32:43.098Z,26.26
2018-08-06T10:33:43.089Z,26.32
2018-08-06T10:34:42.832Z,26.44
2018-08-06T10:35:42.835Z,26.31
2018-08-06T10:36:43.097Z,26.52
2018-08-06T10:37:42.842Z,26.49
2018-08-06T10:38:42.846Z,26.5
2018-08-06T10:39:42.848Z,26.75
2018-08-06T10:40:42.850Z,26.75
2018-08-06T10:41:42.852Z,26.71
2018-08-06T10:42:42.850Z,26.72
2018-08-06T10:43:43.112Z,26.76
2018-08-06T10:44:43.117Z,26.76
2018-08-06T10:45:42.859Z,26.75
2018-08-06T10:46:42.863Z,26.67
2018-08-06T10:47:43.124Z,26.68
2018-08-06T10:48:43.391Z,26.67
2018-08-06T10:49:42.870Z,26.69
2018-08-06T10:50:43.127Z,26.79
2018-08-06T10:51:43.146Z,26.86
2018-08-06T10:52:43.141Z,26.79
2018-08-06T10:53:43.143Z,26.82
2018-08-06T10:54:43.142Z,26.84
2018-08-06T10:55:43.151Z,26.81
2018-08-06T10:56:43.152Z,26.82
2018-08-06T10:57:43.163Z,26.79
2018-08-06T10:58:43.157Z,26.67
2018-08-06T10:59:43.265Z,26.61
2018-08-06T11:00:43.251Z,26.68
2018-08-06T11:01:42.910Z,26.86
2018-08-06T11:02:43.166Z,26.82
2018-08-06T11:03:43.167Z,26.97
2018-08-06T11:04:42.911Z,27.05
2018-08-06T11:05:43.171Z,27.08
2018-08-06T11:06:43.487Z,27.09
2018-08-06T11:07:43.175Z,27.26
2018-08-06T11:08:43.213Z,27.31
2018-08-06T11:09:43.182Z,27.43
2018-08-06T11:10:42.929Z,27.42
2018-08-06T11:11:42.948Z,27.46
2018-08-06T11:12:43.194Z,27.52
2018-08-06T11:13:43.201Z,27.64
2018-08-06T11:14:43.294Z,27.75
2018-08-06T11:15:42.942Z,27.79
2018-08-06T11:16:43.227Z,27.68
2018-08-06T11:17:42.962Z,27.74
2018-08-06T11:18:43.221Z,27.81
2018-08-06T11:19:43.237Z,27.8
2018-08-06T11:20:43.229Z,27.81
2018-08-06T11:21:42.966Z,27.74
2018-08-06T11:22:43.224Z,27.83
2018-08-06T11:23:42.973Z,27.87
2018-08-06T11:24:43.229Z,27.93
2018-08-06T11:25:42.726Z,27.98
2018-08-06T11:26:43.247Z,27.84
2018-08-06T11:27:42.986Z,27.89
2018-08-06T11:28:43.184Z,27.9
2018-08-06T11:29:43.247Z,27.91
2018-08-06T11:30:42.997Z,27.83
2018-08-06T11:31:43.004Z,27.83
2018-08-06T11:32:43.264Z,27.84
2018-08-06T11:33:43.009Z,27.81
2018-08-06T11:34:43.269Z,27.81
2018-08-06T11:35:43.275Z,27.84
2018-08-06T11:36:43.061Z,27.79
2018-08-06T11:37:43.283Z,27.79
2018-08-06T11:38:43.026Z,27.83
2018-08-06T11:39:43.285Z,27.79
2018-08-06T11:40:43.284Z,27.83
2018-08-06T11:41:43.292Z,27.79
2018-08-06T11:42:43.294Z,27.79
2018-08-06T11:43:43.298Z,27.79
2018-08-06T11:44:43.306Z,27.79
2018-08-06T11:45:43.049Z,27.68
2018-08-06T11:46:42.797Z,27.68
2018-08-06T11:47:43.316Z,27.57
2018-08-06T11:48:43.061Z,27.49
2018-08-06T11:49:43.319Z,27.46
2018-08-06T11:50:43.068Z,27.41
2018-08-06T11:51:43.326Z,27.43
2018-08-06T11:52:43.078Z,27.42
2018-08-06T11:53:43.335Z,27.42
2018-08-06T11:54:43.335Z,27.31
2018-08-06T11:55:43.091Z,27.31
2018-08-06T11:56:42.919Z,27.3
2018-08-06T11:57:43.352Z,27.33
2018-08-06T11:58:43.096Z,27.31
2018-08-06T11:59:43.097Z,27.38
2018-08-06T12:00:43.358Z,27.49
2018-08-06T12:01:43.366Z,27.31
2018-08-06T12:02:43.371Z,27.31
2018-08-06T12:03:43.113Z,27.41
2018-08-06T12:04:43.371Z,27.34
2018-08-06T12:05:43.236Z,27.36
2018-08-06T12:06:43.385Z,27.43
2018-08-06T12:07:43.388Z,27.46
2018-08-06T12:08:43.309Z,27.38
2018-08-06T12:09:43.388Z,27.48
2018-08-06T12:10:43.398Z,27.42
2018-08-06T12:11:43.138Z,27.49
2018-08-06T12:12:43.141Z,27.57
2018-08-06T12:13:43.628Z,27.53
2018-08-06T12:14:43.161Z,27.53
2018-08-06T12:15:43.156Z,27.53
2018-08-06T12:16:43.409Z,27.59
2018-08-06T12:17:43.417Z,27.55
2018-08-06T12:18:42.908Z,27.45
2018-08-06T12:19:43.428Z,27.51
2018-08-06T12:20:43.423Z,27.51
2018-08-06T12:21:43.446Z,27.37
2018-08-06T12:22:42.917Z,27.43
2018-08-06T12:23:43.448Z,27.37
2018-08-06T12:24:43.444Z,27.34
2018-08-06T12:25:43.462Z,27.41
2018-08-06T12:26:43.195Z,27.31
2018-08-06T12:27:43.452Z,27.33
2018-08-06T12:28:43.455Z,27.41
2018-08-06T12:29:43.457Z,27.43
2018-08-06T12:30:43.467Z,27.52
2018-08-06T12:31:43.374Z,27.59
2018-08-06T12:32:43.476Z,27.75
2018-08-06T12:33:43.476Z,27.69
2018-08-06T12:34:43.235Z,27.75
2018-08-06T12:35:43.480Z,27.66
2018-08-06T12:36:43.476Z,27.57
2018-08-06T12:37:43.485Z,27.52
2018-08-06T12:38:43.513Z,27.62
2018-08-06T12:39:43.234Z,27.57
2018-08-06T12:40:43.499Z,27.57
2018-08-06T12:41:42.988Z,27.55
2018-08-06T12:42:43.506Z,27.59
2018-08-06T12:43:43.248Z,27.55
2018-08-06T12:44:43.543Z,27.66
2018-08-06T12:45:43.508Z,27.76
2018-08-06T12:46:43.527Z,27.66
2018-08-06T12:47:43.525Z,27.72
2018-08-06T12:48:43.266Z,27.79
2018-08-06T12:49:43.268Z,27.69
2018-08-06T12:50:43.273Z,27.75
2018-08-06T12:51:43.402Z,27.81
2018-08-06T12:52:43.540Z,27.69
2018-08-06T12:53:43.548Z,27.76
2018-08-06T12:54:43.551Z,27.8
2018-08-06T12:55:43.549Z,27.83